Strona główna
METAR-TAF:

METAR-TAF

Lotnisko :

Mataram, Indonezja

Szerokość geograficzna: 08-45-29S, Długość geograficzna: 116-16-35E, wysokość: 97 m

Aktualna obserwacja pogody

Raport powstał 24 minut temu, godzina 09:00 UTC
Wiatr 11 kt od południowy wschód
Temperatura 29°C
Wilgotność 70%
Ciśnienie 1010 hPa
Widzialność: 8000 m
Mało chmury na wysokości 1600 ft

METAR: WADL 040900Z 14011KT 8000 FEW016 29/23 Q1010 NOSIG

czas: 16:24 (09:24 UTC)

Prognoza

Raport powstał 4 godziny i 24 minut temu, godzina 05:00 UTC
Prognoza ważna od 04 godzina 06 UTC do 05 godzina 06 UTC
Wiatr 10 kt od wschodnio-południowy wschód
Widzialność: 8000 m
Rozproszone chmury na wysokości 1600 ft

TAF: WADL 040500Z 0406/0506 12010KT 8000 SCT016

Obserwacja i prognoza pogody dla ponad 4000 lotnisk (raport METAR i TAF).

Dostępne stacje oznaczono żółtymi i czerwonymi punktami na mapie.

Najedź kursorem aby zobaczyć nazwę stacji.

Kliknij aby zobaczyć obserwacje i prognozy pogody.

Aby zmienić mapę: kliknij na zielony przycisk z czarnym krzyżykiem, aby powiększyć; na zielony przycisk z myślnikiem, aby pomniejszyć; na zielone strzałki, aby przejść do map sąsiednich.


METAR-TAF: